Time;durP1;ratioP1;P1;durP2;ratioP2;P2;SDS_P1;SDS_P2;PMS_P1;PMS_P2;Temp;Humidity;BMP_temperature;BMP_pressure;BME280_temperature;BME280_humidity;BME280_pressure;Samples;Min_cycle;Max_cycle;Signal;HPM_P1;HPM_P2
2021/11/06 00:03:05;;;;;;;24.40;10.90;;;10.90;99.90;;;;;;8290217;28;20470;-77
2021/11/06 00:07:06;;;;;;;16.00;9.83;;;10.80;99.90;;;;;;8289048;28;20208;-77
2021/11/06 00:11:07;;;;;;;22.93;10.87;;;10.70;99.90;;;;;;8269265;28;20453;-78
2021/11/06 00:15:10;;;;;;;24.73;9.20;;;10.70;99.90;;;;;;8270114;28;20229;-76
2021/11/06 00:19:11;;;;;;;13.90;8.50;;;10.60;99.90;;;;;;8273792;28;20192;-78
2021/11/06 00:23:12;;;;;;;19.23;9.63;;;10.50;99.90;;;;;;8290733;28;21428;-77
2021/11/06 00:27:13;;;;;;;24.80;10.13;;;10.40;99.90;;;;;;8291166;28;20211;-77
2021/11/06 00:31:13;;;;;;;19.87;10.70;;;10.20;99.90;;;;;;8272695;28;20187;-77
2021/11/06 00:35:15;;;;;;;21.70;8.87;;;10.10;99.90;;;;;;8292753;28;21136;-77
2021/11/06 00:39:16;;;;;;;16.70;9.80;;;10.00;99.90;;;;;;8271916;28;20194;-77
2021/11/06 00:43:17;;;;;;;21.33;10.20;;;9.90;99.90;;;;;;8274778;28;20442;-77
2021/11/06 00:47:17;;;;;;;15.90;10.07;;;9.70;99.90;;;;;;8290393;28;20224;-76
2021/11/06 00:51:18;;;;;;;18.63;10.37;;;9.60;99.90;;;;;;8303335;28;20191;-76
2021/11/06 00:55:19;;;;;;;25.40;9.37;;;9.50;99.90;;;;;;8301651;28;20203;-76
2021/11/06 00:59:19;;;;;;;16.43;8.30;;;9.40;99.90;;;;;;8308065;28;20203;-76
2021/11/06 01:03:20;;;;;;;17.10;9.40;;;9.30;99.90;;;;;;8291651;28;20226;-76
2021/11/06 01:07:20;;;;;;;13.87;8.67;;;9.10;99.90;;;;;;8300932;28;20238;-77
2021/11/06 01:11:21;;;;;;;18.70;9.33;;;8.90;99.90;;;;;;8304497;28;20223;-76
2021/11/06 01:15:22;;;;;;;23.83;9.60;;;8.80;99.90;;;;;;8301675;28;21108;-76
2021/11/06 01:19:22;;;;;;;21.10;9.83;;;8.60;99.90;;;;;;8310945;28;20199;-77
2021/11/06 01:23:23;;;;;;;23.10;9.63;;;8.60;99.90;;;;;;8304166;28;20259;-77
2021/11/06 01:27:24;;;;;;;15.37;8.37;;;8.50;99.90;;;;;;8304078;28;20207;-76
2021/11/06 01:31:24;;;;;;;15.90;9.43;;;8.40;99.90;;;;;;8306832;28;20209;-76
2021/11/06 01:35:25;;;;;;;17.80;9.83;;;8.30;99.90;;;;;;8305198;28;20262;-77
2021/11/06 01:39:25;;;;;;;18.70;10.40;;;8.20;99.90;;;;;;8303856;28;20203;-77
2021/11/06 01:43:26;;;;;;;22.77;11.20;;;8.10;99.90;;;;;;8289569;28;20213;-76
2021/11/06 01:47:27;;;;;;;19.40;10.80;;;8.00;99.90;;;;;;8303787;28;20210;-76
2021/11/06 01:51:28;;;;;;;30.30;10.10;;;7.90;99.90;;;;;;8291731;28;20193;-76
2021/11/06 01:55:29;;;;;;;18.43;9.47;;;7.90;99.90;;;;;;8292455;28;20210;-77
2021/11/06 01:59:30;;;;;;;28.60;10.40;;;7.80;99.90;;;;;;8285076;28;20788;-77
2021/11/06 02:03:31;;;;;;;19.53;10.83;;;7.80;99.90;;;;;;8270623;28;1113245;-76
2021/11/06 02:07:32;;;;;;;24.47;10.33;;;7.70;99.90;;;;;;8289008;28;20248;-77
2021/11/06 02:11:35;;;;;;;22.83;10.37;;;7.70;99.90;;;;;;8286010;28;20458;-77
2021/11/06 02:15:36;;;;;;;17.87;10.20;;;7.60;99.90;;;;;;8311756;28;20202;-77
2021/11/06 02:19:37;;;;;;;20.70;11.00;;;7.60;99.90;;;;;;8291350;28;20456;-76
2021/11/06 02:23:41;;;;;;;16.00;10.07;;;7.60;99.90;;;;;;8312404;28;20464;-77
2021/11/06 02:27:42;;;;;;;21.10;10.50;;;7.60;99.90;;;;;;8289858;28;20463;-77
2021/11/06 02:31:42;;;;;;;19.17;10.20;;;7.50;99.90;;;;;;8298312;28;20444;-76
2021/11/06 02:35:43;;;;;;;22.40;10.20;;;7.50;99.90;;;;;;8293269;28;20678;-77
2021/11/06 02:39:44;;;;;;;16.37;8.83;;;7.40;99.90;;;;;;8306420;28;20555;-77
2021/11/06 02:43:45;;;;;;;17.60;9.67;;;7.40;99.90;;;;;;8292911;28;20189;-77
2021/11/06 02:47:45;;;;;;;34.70;9.50;;;7.40;99.90;;;;;;8307890;28;21072;-77
2021/11/06 02:51:46;;;;;;;30.13;11.60;;;7.30;99.90;;;;;;8283504;28;20198;-77
2021/11/06 02:55:48;;;;;;;26.47;12.87;;;7.30;99.90;;;;;;8303807;28;20200;-76
2021/11/06 02:59:50;;;;;;;15.90;9.50;;;7.20;99.90;;;;;;8289723;28;20195;-76
2021/11/06 03:03:51;;;;;;;20.63;10.10;;;7.10;99.90;;;;;;8294389;28;20491;-77
2021/11/06 03:07:52;;;;;;;19.67;11.03;;;7.00;99.90;;;;;;8314340;28;20985;-77
2021/11/06 03:11:54;;;;;;;18.50;9.70;;;6.90;99.90;;;;;;8296287;28;20629;-77
2021/11/06 03:15:54;;;;;;;20.17;8.63;;;6.80;99.90;;;;;;8288585;28;21037;-77
2021/11/06 03:19:55;;;;;;;20.40;8.97;;;6.80;99.90;;;;;;8304951;28;20443;-78
2021/11/06 03:23:56;;;;;;;22.47;11.03;;;6.70;99.90;;;;;;8287871;28;20187;-76
2021/11/06 03:27:57;;;;;;;22.63;8.50;;;6.70;99.90;;;;;;8321432;28;20462;-77
2021/11/06 03:31:57;;;;;;;15.50;8.20;;;6.60;99.90;;;;;;8307077;28;20223;-76
2021/11/06 03:35:58;;;;;;;23.17;9.87;;;6.60;99.90;;;;;;8309499;28;20192;-77
2021/11/06 03:40:00;;;;;;;13.47;8.50;;;6.60;99.90;;;;;;8311036;28;20362;-76
2021/11/06 03:44:00;;;;;;;20.27;8.67;;;6.60;99.90;;;;;;8308990;28;20438;-76
2021/11/06 03:48:01;;;;;;;23.13;8.73;;;6.60;99.90;;;;;;8293423;28;20998;-76
2021/11/06 03:52:02;;;;;;;16.20;9.23;;;6.50;99.90;;;;;;8301402;28;20191;-76
2021/11/06 03:56:03;;;;;;;20.17;9.90;;;6.50;99.90;;;;;;8289803;28;20182;-76
2021/11/06 04:00:09;;;;;;;19.70;9.27;;;6.50;99.90;;;;;;8306105;28;20472;-77
2021/11/06 04:04:10;;;;;;;17.20;8.53;;;6.40;99.90;;;;;;8292077;28;20255;-76
2021/11/06 04:08:11;;;;;;;16.83;8.60;;;6.30;99.90;;;;;;8309457;28;20473;-77
2021/11/06 04:12:12;;;;;;;22.13;9.60;;;6.30;99.90;;;;;;8311198;28;20662;-76
2021/11/06 04:16:13;;;;;;;18.23;8.97;;;6.20;99.90;;;;;;8289073;28;20972;-77
2021/11/06 04:20:14;;;;;;;22.77;11.07;;;6.10;99.90;;;;;;8316871;28;20204;-76
2021/11/06 04:24:15;;;;;;;19.90;9.17;;;6.10;99.90;;;;;;8307618;28;20450;-77
2021/11/06 04:28:16;;;;;;;18.47;9.63;;;6.00;99.90;;;;;;8292400;28;20417;-76
2021/11/06 04:32:16;;;;;;;20.07;10.07;;;6.00;99.90;;;;;;8289216;28;20478;-76
2021/11/06 04:36:17;;;;;;;25.40;11.70;;;5.90;99.90;;;;;;8310113;28;20521;-76
2021/11/06 04:40:18;;;;;;;25.97;10.00;;;5.90;99.90;;;;;;8318561;28;20189;-76
2021/11/06 04:44:18;;;;;;;23.43;10.07;;;5.80;99.90;;;;;;8285685;28;20697;-77
2021/11/06 04:48:19;;;;;;;15.37;9.10;;;5.80;99.90;;;;;;8309075;28;20219;-77
2021/11/06 04:52:20;;;;;;;16.90;9.60;;;5.70;99.90;;;;;;8292308;28;20184;-75
2021/11/06 04:56:21;;;;;;;20.80;9.77;;;5.70;99.90;;;;;;8308486;28;21267;-77
2021/11/06 05:00:22;;;;;;;24.13;10.93;;;5.60;99.90;;;;;;8289456;28;20188;-76
2021/11/06 05:04:22;;;;;;;26.37;9.93;;;5.60;99.90;;;;;;8307519;28;22305;-78
2021/11/06 05:08:23;;;;;;;22.30;11.00;;;5.60;99.90;;;;;;8301806;28;20209;-76
2021/11/06 05:12:24;;;;;;;16.30;9.30;;;5.50;99.90;;;;;;8311510;28;20211;-76
2021/11/06 05:16:25;;;;;;;23.77;9.13;;;5.50;99.90;;;;;;8308528;28;20188;-77
2021/11/06 05:20:26;;;;;;;25.33;10.07;;;5.50;99.90;;;;;;8312707;28;20446;-76
2021/11/06 05:24:26;;;;;;;27.60;13.37;;;5.60;99.90;;;;;;8306743;28;20485;-76
2021/11/06 05:28:27;;;;;;;36.67;13.97;;;5.70;99.90;;;;;;8301633;28;20285;-77
2021/11/06 05:32:28;;;;;;;31.30;14.57;;;5.90;99.90;;;;;;8285190;28;20191;-76
2021/11/06 05:36:29;;;;;;;40.13;16.20;;;6.10;99.90;;;;;;8310022;28;20188;-76
2021/11/06 05:40:30;;;;;;;32.07;13.87;;;6.30;99.90;;;;;;8327814;28;20207;-76
2021/11/06 05:44:30;;;;;;;34.83;13.53;;;6.40;99.90;;;;;;8287443;28;20455;-76
2021/11/06 05:48:31;;;;;;;25.73;12.70;;;6.50;99.90;;;;;;8288935;28;20208;-76
2021/11/06 05:52:33;;;;;;;30.83;13.43;;;6.60;99.90;;;;;;8291309;28;20196;-76
2021/11/06 05:56:34;;;;;;;27.97;14.13;;;6.60;99.90;;;;;;8299291;28;20195;-76
2021/11/06 06:00:35;;;;;;;25.20;12.40;;;6.60;99.90;;;;;;8287952;28;20534;-76
2021/11/06 06:04:35;;;;;;;20.67;10.90;;;6.60;99.90;;;;;;8307115;28;20482;-77
2021/11/06 06:08:36;;;;;;;23.00;12.90;;;6.60;99.90;;;;;;8305692;28;20470;-77
2021/11/06 06:12:37;;;;;;;26.47;12.10;;;6.50;99.90;;;;;;8309720;28;20690;-77
2021/11/06 06:16:38;;;;;;;26.33;12.00;;;6.50;99.90;;;;;;8286822;28;20449;-76
2021/11/06 06:20:39;;;;;;;34.30;12.10;;;6.60;99.90;;;;;;8302732;28;20443;-76
2021/11/06 06:24:39;;;;;;;25.20;12.10;;;6.80;99.90;;;;;;8306240;28;20274;-76
2021/11/06 06:28:40;;;;;;;17.40;9.73;;;6.90;99.90;;;;;;8304750;28;20662;-75
2021/11/06 06:32:41;;;;;;;17.30;8.83;;;7.00;99.90;;;;;;8313550;28;20288;-77
2021/11/06 06:36:42;;;;;;;23.00;10.67;;;7.00;99.90;;;;;;8303319;28;20292;-76
2021/11/06 06:40:42;;;;;;;20.10;9.67;;;7.00;99.90;;;;;;8287251;28;20444;-77
2021/11/06 06:44:44;;;;;;;20.10;9.50;;;7.10;99.90;;;;;;8305942;28;20232;-75
2021/11/06 06:48:45;;;;;;;17.30;9.33;;;7.10;99.90;;;;;;8305732;28;20210;-78
2021/11/06 06:52:45;;;;;;;17.97;9.10;;;7.20;99.90;;;;;;8310156;28;20466;-76
2021/11/06 06:56:46;;;;;;;21.90;10.67;;;7.30;99.90;;;;;;8290250;28;20198;-76
2021/11/06 07:00:47;;;;;;;19.30;9.90;;;7.40;99.90;;;;;;8298745;28;20188;-76
2021/11/06 07:04:47;;;;;;;20.00;12.13;;;7.40;99.90;;;;;;8299028;28;20256;-77
2021/11/06 07:08:48;;;;;;;14.27;8.00;;;7.40;99.90;;;;;;8280983;28;20244;-77
2021/11/06 07:12:49;;;;;;;18.33;10.53;;;7.50;99.90;;;;;;8276308;28;20227;-75
2021/11/06 07:16:50;;;;;;;15.03;9.50;;;7.50;99.90;;;;;;8280563;28;20528;-76
2021/11/06 07:20:51;;;;;;;18.13;9.70;;;7.60;99.90;;;;;;8278781;28;20598;-77
2021/11/06 07:24:51;;;;;;;16.57;9.30;;;7.70;99.90;;;;;;8278297;28;20536;-76
2021/11/06 07:28:52;;;;;;;20.47;9.10;;;7.70;99.90;;;;;;8281951;28;20625;-76
2021/11/06 07:32:53;;;;;;;15.30;9.17;;;7.70;99.90;;;;;;8279660;28;20234;-77
2021/11/06 07:36:53;;;;;;;22.20;9.93;;;7.80;99.90;;;;;;8283721;28;20273;-76
2021/11/06 07:40:54;;;;;;;14.10;6.80;;;7.80;99.90;;;;;;8283692;28;20257;-76
2021/11/06 07:44:55;;;;;;;12.80;6.87;;;8.10;99.90;;;;;;8276589;28;20273;-77
2021/11/06 07:48:55;;;;;;;12.30;6.27;;;8.90;99.90;;;;;;8274332;28;20675;-76
2021/11/06 07:52:56;;;;;;;9.10;6.10;;;10.00;99.90;;;;;;8274169;28;20198;-77
2021/11/06 07:56:57;;;;;;;9.47;6.23;;;11.10;98.60;;;;;;8277461;28;20727;-77
2021/11/06 08:00:59;;;;;;;5.47;4.87;;;12.00;97.10;;;;;;8278124;28;20444;-77
2021/11/06 08:05:01;;;;;;;6.83;5.20;;;12.60;95.80;;;;;;8300591;28;20228;-77
2021/11/06 08:09:02;;;;;;;12.93;4.07;;;13.20;95.60;;;;;;8306974;28;21588;-77
2021/11/06 08:13:04;;;;;;;8.07;5.43;;;13.80;94.20;;;;;;8326953;28;20449;-78
2021/11/06 08:17:04;;;;;;;8.97;4.20;;;14.40;92.20;;;;;;8325282;28;20603;-78
2021/11/06 08:21:06;;;;;;;3.77;3.37;;;15.00;90.20;;;;;;8294274;28;20503;-77
2021/11/06 08:25:08;;;;;;;4.17;3.10;;;15.60;86.70;;;;;;8308998;28;20205;-77
2021/11/06 08:29:09;;;;;;;5.97;3.37;;;16.20;83.60;;;;;;8290174;28;20488;-76
2021/11/06 08:33:10;;;;;;;5.93;2.50;;;16.50;80.40;;;;;;8311765;28;20453;-77
2021/11/06 08:37:11;;;;;;;4.43;2.77;;;16.20;81.00;;;;;;8307575;28;20194;-76
2021/11/06 08:41:12;;;;;;;6.87;3.53;;;16.30;80.10;;;;;;8314850;28;20969;-76
2021/11/06 08:45:14;;;;;;;5.47;3.90;;;16.30;79.70;;;;;;8313684;28;20189;-77
2021/11/06 08:49:16;;;;;;;5.90;3.93;;;16.30;80.50;;;;;;8318500;28;20227;-78
2021/11/06 08:53:17;;;;;;;5.40;3.27;;;16.70;78.80;;;;;;8294759;28;20874;-78
2021/11/06 08:57:18;;;;;;;4.93;3.00;;;17.00;77.70;;;;;;8311933;28;21013;-78
2021/11/06 09:01:19;;;;;;;4.17;3.10;;;17.10;76.70;;;;;;8312621;28;20450;-78
2021/11/06 09:05:20;;;;;;;3.20;2.27;;;16.90;77.20;;;;;;8306238;28;20581;-78
2021/11/06 09:09:21;;;;;;;4.20;2.73;;;16.90;75.90;;;;;;8285946;28;21330;-78
2021/11/06 09:13:25;;;;;;;3.33;2.80;;;17.00;77.10;;;;;;8324010;28;20458;-78
2021/11/06 09:17:26;;;;;;;3.23;2.30;;;17.30;75.90;;;;;;8310015;28;20493;-78
2021/11/06 09:21:29;;;;;;;2.20;2.00;;;17.80;75.80;;;;;;8311095;28;20422;-77
2021/11/06 09:25:29;;;;;;;2.97;2.67;;;18.30;73.30;;;;;;8311886;28;20417;-79
2021/11/06 09:29:30;;;;;;;2.60;2.40;;;18.60;72.00;;;;;;8301669;28;20470;-79
2021/11/06 09:33:30;;;;;;;2.30;2.10;;;18.80;71.90;;;;;;8315423;28;20279;-77
2021/11/06 09:37:31;;;;;;;2.20;1.77;;;19.10;71.60;;;;;;8294911;28;20194;-77
2021/11/06 09:41:32;;;;;;;2.23;2.00;;;19.00;69.40;;;;;;8295540;28;20645;-79
2021/11/06 09:45:33;;;;;;;3.17;2.10;;;19.10;69.00;;;;;;8303829;28;20196;-78
2021/11/06 09:49:34;;;;;;;1.97;1.77;;;19.10;69.40;;;;;;8304762;28;20462;-78
2021/11/06 09:53:40;;;;;;;3.80;1.83;;;19.20;70.20;;;;;;8284556;28;20199;-77
2021/11/06 09:57:41;;;;;;;3.77;2.10;;;19.30;68.80;;;;;;8279136;28;21425;-80
2021/11/06 10:01:41;;;;;;;3.30;2.47;;;19.10;68.80;;;;;;8302391;28;20439;-77
2021/11/06 10:05:54;;;;;;;1.97;1.83;;;18.90;69.20;;;;;;8282145;28;20675;-77
2021/11/06 10:09:57;;;;;;;2.40;1.70;;;18.70;69.50;;;;;;8263094;28;20298;-77
2021/11/06 10:14:01;;;;;;;3.40;2.37;;;18.50;70.70;;;;;;8271797;28;21050;-78
2021/11/06 10:18:13;;;;;;;4.10;1.60;;;18.40;69.00;;;;;;8280758;28;20539;-77
2021/11/06 10:22:16;;;;;;;1.67;1.33;;;18.00;69.10;;;;;;8272637;28;20510;-78
2021/11/06 10:26:20;;;;;;;2.30;1.90;;;17.60;69.40;;;;;;8259474;28;20447;-79
2021/11/06 10:30:26;;;;;;;2.17;1.50;;;17.20;71.10;;;;;;8294797;28;20437;-78
2021/11/06 10:34:33;;;;;;;3.90;1.83;;;16.80;71.10;;;;;;8268381;28;20486;-80
2021/11/06 10:38:37;;;;;;;1.63;1.53;;;16.70;71.00;;;;;;8269621;28;20422;-79
2021/11/06 10:42:55;;;;;;;2.07;1.87;;;16.60;72.30;;;;;;8265019;28;20415;-79
2021/11/06 10:46:56;;;;;;;2.50;1.67;;;16.50;72.90;;;;;;8276012;28;20501;-77
2021/11/06 10:51:05;;;;;;;2.87;1.70;;;16.60;73.80;;;;;;8283614;28;20537;-77
2021/11/06 10:55:08;;;;;;;2.00;1.80;;;16.70;73.30;;;;;;8308033;28;20746;-77
2021/11/06 10:59:11;;;;;;;1.97;1.83;;;16.70;73.90;;;;;;8273262;28;21153;-78
2021/11/06 11:03:34;;;;;;;1.60;1.50;;;16.70;72.90;;;;;;8284899;28;20489;-76
2021/11/06 11:07:35;;;;;;;1.20;1.10;;;16.60;73.60;;;;;;8304143;28;20458;-76
2021/11/06 11:11:36;;;;;;;3.70;2.20;;;16.60;73.50;;;;;;8302444;28;20537;-75
2021/11/06 11:15:37;;;;;;;1.70;1.60;;;16.70;73.90;;;;;;8310622;28;20180;-75
2021/11/06 11:19:41;;;;;;;1.70;1.60;;;16.60;72.50;;;;;;8281769;28;20975;-76
2021/11/06 11:23:48;;;;;;;3.40;1.83;;;16.60;72.90;;;;;;8309359;28;20453;-76
2021/11/06 11:27:48;;;;;;;1.30;1.10;;;16.50;73.50;;;;;;8277397;28;20466;-77
2021/11/06 11:31:49;;;;;;;1.50;1.40;;;16.40;73.30;;;;;;8276445;28;20485;-77
2021/11/06 11:35:51;;;;;;;2.00;1.77;;;16.30;72.70;;;;;;8299644;28;20526;-76
2021/11/06 11:39:53;;;;;;;2.03;1.70;;;16.20;73.70;;;;;;8299877;28;20652;-76
2021/11/06 11:44:25;;;;;;;2.13;1.60;;;16.00;73.70;;;;;;8292782;28;20449;-77
2021/11/06 11:48:27;;;;;;;1.27;1.10;;;15.90;75.50;;;;;;8293414;28;20471;-77
2021/11/06 11:52:28;;;;;;;1.40;1.30;;;15.90;75.00;;;;;;8279829;28;20490;-77
2021/11/06 11:56:30;;;;;;;1.47;1.37;;;15.80;74.90;;;;;;8297369;28;20463;-77
2021/11/06 12:00:38;;;;;;;1.83;1.73;;;15.90;75.40;;;;;;8292833;28;20469;-75
2021/11/06 12:04:39;;;;;;;1.37;1.27;;;16.00;75.20;;;;;;8308966;28;20979;-76
2021/11/06 12:08:39;;;;;;;1.63;1.10;;;16.00;76.00;;;;;;8300364;28;20510;-79
2021/11/06 12:12:40;;;;;;;2.10;1.50;;;16.00;76.10;;;;;;8290930;28;20200;-79
2021/11/06 12:16:45;;;;;;;1.73;1.60;;;15.90;76.60;;;;;;8309401;28;20202;-78
2021/11/06 12:20:46;;;;;;;0.90;0.90;;;15.90;76.10;;;;;;8303136;28;20188;-78
2021/11/06 12:24:50;;;;;;;1.20;1.10;;;15.90;76.60;;;;;;8310414;28;20447;-77
2021/11/06 12:29:09;;;;;;;1.60;1.37;;;15.80;76.40;;;;;;8301842;28;20227;-77
2021/11/06 12:33:10;;;;;;;4.53;1.80;;;15.90;76.60;;;;;;8274885;28;20538;-81
2021/11/06 12:37:30;;;;;;;2.30;1.40;;;16.10;76.10;;;;;;8313048;28;20452;-78
2021/11/06 12:41:36;;;;;;;2.97;1.87;;;15.90;76.30;;;;;;8307741;28;20182;-78
2021/11/06 12:45:38;;;;;;;1.83;1.10;;;15.50;77.50;;;;;;8319725;28;20446;-77
2021/11/06 12:49:38;;;;;;;1.87;1.73;;;15.40;77.90;;;;;;8300719;28;20471;-78
2021/11/06 12:53:51;;;;;;;1.97;1.10;;;15.30;78.20;;;;;;8309662;28;20451;-79
2021/11/06 12:57:52;;;;;;;1.60;1.30;;;15.20;78.70;;;;;;8324711;28;20595;-78
2021/11/06 13:01:57;;;;;;;1.37;1.27;;;15.30;78.80;;;;;;8321945;28;20447;-78
2021/11/06 13:05:58;;;;;;;1.17;1.07;;;15.30;78.10;;;;;;8297894;28;20478;-78
2021/11/06 13:09:59;;;;;;;1.90;1.80;;;15.40;78.30;;;;;;8212890;28;20548;-77
2021/11/06 13:13:59;;;;;;;1.00;0.90;;;15.50;78.10;;;;;;3662510;28;10002030;-78
2021/11/06 13:18:06;;;;;;;1.37;1.00;;;15.60;77.80;;;;;;8378571;28;20465;-78
2021/11/06 13:22:07;;;;;;;3.93;1.27;;;15.60;77.60;;;;;;8358557;28;20191;-77
2021/11/06 13:26:07;;;;;;;5.13;0.90;;;15.70;77.80;;;;;;8355796;28;21010;-79
2021/11/06 13:30:40;;;;;;;1.30;1.20;;;15.80;77.40;;;;;;8367101;28;20453;-77
2021/11/06 13:34:40;;;;;;;1.10;0.90;;;15.80;77.60;;;;;;8366955;28;20203;-77
2021/11/06 13:38:51;;;;;;;2.00;1.10;;;15.90;77.10;;;;;;8348185;28;20529;-77
2021/11/06 13:42:52;;;;;;;0.80;0.80;;;15.80;76.80;;;;;;8366276;28;20255;-75
2021/11/06 13:46:56;;;;;;;1.30;0.97;;;15.80;77.00;;;;;;8368212;28;20506;-77
2021/11/06 13:51:44;;;;;;;1.03;0.97;;;15.80;77.60;;;;;;8367152;28;20184;-76
2021/11/06 13:55:56;;;;;;;2.10;1.07;;;15.90;77.80;;;;;;8344555;28;20859;-77
2021/11/06 14:00:07;;;;;;;0.83;0.80;;;15.80;77.50;;;;;;8354750;28;20821;-77
2021/11/06 14:04:11;;;;;;;0.80;0.80;;;15.80;77.90;;;;;;8357271;28;20472;-78
2021/11/06 14:08:17;;;;;;;0.90;0.90;;;15.80;77.80;;;;;;8357340;28;20473;-78
2021/11/06 14:12:18;;;;;;;1.00;0.90;;;16.00;78.00;;;;;;8360236;28;21157;-76
2021/11/06 14:16:19;;;;;;;1.10;1.00;;;16.00;78.80;;;;;;8352195;28;20881;-77
2021/11/06 14:20:37;;;;;;;2.10;1.20;;;16.00;77.90;;;;;;8353089;28;20451;-77
2021/11/06 14:24:38;;;;;;;2.03;1.33;;;15.90;78.80;;;;;;8371967;28;21209;-77
2021/11/06 14:28:54;;;;;;;1.83;1.30;;;15.70;78.70;;;;;;8353281;28;20476;-76
2021/11/06 14:33:02;;;;;;;1.37;1.27;;;15.40;79.90;;;;;;8355606;28;21162;-77
2021/11/06 14:37:04;;;;;;;2.67;1.40;;;15.10;80.50;;;;;;8353576;28;20436;-77
2021/11/06 14:41:06;;;;;;;2.03;1.67;;;14.80;81.50;;;;;;8365225;28;21066;-76
2021/11/06 14:45:13;;;;;;;2.93;1.30;;;14.60;81.70;;;;;;8371490;28;20451;-79
2021/11/06 14:49:16;;;;;;;2.17;1.70;;;14.40;82.30;;;;;;8375137;28;20976;-77
2021/11/06 14:53:19;;;;;;;1.57;1.33;;;14.30;82.80;;;;;;8374110;28;20445;-77
2021/11/06 14:57:24;;;;;;;2.03;1.30;;;14.20;83.10;;;;;;8357913;28;20471;-78
2021/11/06 15:01:25;;;;;;;3.57;2.20;;;14.10;83.80;;;;;;8367782;28;20441;-78
2021/11/06 15:05:31;;;;;;;3.90;1.57;;;14.00;83.60;;;;;;8374166;28;20471;-77
2021/11/06 15:09:32;;;;;;;1.50;1.40;;;14.00;84.00;;;;;;8354136;28;20259;-76
2021/11/06 15:13:32;;;;;;;1.10;1.10;;;13.90;84.80;;;;;;8352171;28;20545;-77
2021/11/06 15:17:33;;;;;;;1.93;1.17;;;13.80;84.40;;;;;;8364457;28;20190;-78
2021/11/06 15:21:35;;;;;;;2.10;1.50;;;13.70;85.20;;;;;;8384904;28;20184;-79
2021/11/06 15:25:39;;;;;;;2.07;1.40;;;13.70;85.40;;;;;;8366530;28;20187;-78
2021/11/06 15:29:40;;;;;;;1.40;1.30;;;13.60;85.50;;;;;;8365951;28;20472;-79
2021/11/06 15:33:40;;;;;;;1.73;1.50;;;13.50;85.50;;;;;;8387768;28;20448;-78
2021/11/06 15:37:46;;;;;;;2.03;1.40;;;13.50;85.60;;;;;;8383713;28;20193;-78
2021/11/06 15:41:47;;;;;;;1.53;1.43;;;13.40;86.10;;;;;;8379099;28;20188;-77
2021/11/06 15:45:47;;;;;;;1.37;1.27;;;13.40;86.10;;;;;;8361003;28;21279;-78
2021/11/06 15:49:49;;;;;;;1.53;1.40;;;13.40;86.50;;;;;;8365659;28;20531;-75
2021/11/06 15:53:50;;;;;;;5.30;2.20;;;13.40;86.30;;;;;;8346952;28;20218;-74
2021/11/06 15:57:51;;;;;;;1.47;1.37;;;13.40;86.30;;;;;;8366884;28;20452;-76
2021/11/06 16:01:52;;;;;;;1.73;1.30;;;13.30;86.70;;;;;;8366587;28;20449;-79
2021/11/06 16:05:53;;;;;;;2.73;1.63;;;13.20;86.80;;;;;;8370397;28;20467;-78
2021/11/06 16:09:54;;;;;;;1.60;1.50;;;13.10;87.10;;;;;;8372197;28;20320;-78
2021/11/06 16:13:55;;;;;;;5.10;2.10;;;13.10;87.50;;;;;;8385292;28;20197;-79
2021/11/06 16:18:01;;;;;;;2.90;2.27;;;13.10;87.70;;;;;;8387689;28;20449;-79
2021/11/06 16:22:07;;;;;;;2.60;1.50;;;13.10;87.90;;;;;;8380186;28;20859;-78
2021/11/06 16:26:07;;;;;;;5.70;2.90;;;13.00;88.10;;;;;;8376616;28;20441;-77
2021/11/06 16:30:11;;;;;;;1.80;1.70;;;13.00;88.10;;;;;;8384528;28;20477;-79
2021/11/06 16:34:11;;;;;;;4.40;2.23;;;13.00;88.10;;;;;;8393148;28;20184;-76
2021/11/06 16:38:12;;;;;;;1.63;1.53;;;12.90;88.00;;;;;;8356200;28;20450;-78
2021/11/06 16:42:13;;;;;;;1.97;1.30;;;12.90;88.00;;;;;;8374814;28;20261;-78
2021/11/06 16:46:14;;;;;;;3.73;2.67;;;12.90;88.20;;;;;;8381092;28;20184;-78
2021/11/06 16:50:15;;;;;;;2.97;2.00;;;12.90;87.80;;;;;;8365118;28;20255;-79
2021/11/06 16:54:15;;;;;;;2.70;2.23;;;12.80;87.80;;;;;;8388708;28;20189;-79
2021/11/06 16:58:16;;;;;;;2.93;1.90;;;12.80;88.20;;;;;;8369476;28;20554;-79
2021/11/06 17:02:17;;;;;;;2.13;2.03;;;12.70;88.20;;;;;;8384432;28;20211;-78
2021/11/06 17:06:18;;;;;;;2.47;2.23;;;12.70;88.10;;;;;;8352873;28;20628;-77
2021/11/06 17:10:32;;;;;;;2.80;2.00;;;12.60;88.30;;;;;;8386216;28;20327;-78
2021/11/06 17:14:33;;;;;;;3.83;3.20;;;12.60;88.60;;;;;;8368932;28;20185;-77
2021/11/06 17:18:33;;;;;;;3.57;2.80;;;12.50;88.90;;;;;;8368719;28;20438;-78
2021/11/06 17:22:34;;;;;;;3.20;2.90;;;12.50;89.30;;;;;;8366411;28;20354;-77
2021/11/06 17:26:37;;;;;;;3.87;3.03;;;12.50;89.30;;;;;;8356573;28;20246;-76
2021/11/06 17:30:38;;;;;;;6.27;4.07;;;12.40;89.80;;;;;;8371747;28;20629;-78
2021/11/06 17:34:39;;;;;;;6.77;4.17;;;12.30;89.80;;;;;;8355329;28;20442;-76
2021/11/06 17:38:39;;;;;;;4.63;3.50;;;12.30;89.70;;;;;;8361763;28;21000;-77
2021/11/06 17:42:41;;;;;;;5.23;3.30;;;12.20;89.80;;;;;;8375260;28;20253;-79
2021/11/06 17:46:42;;;;;;;4.50;3.77;;;12.20;89.70;;;;;;8353767;28;20223;-81
2021/11/06 17:51:01;;;;;;;4.50;3.77;;;12.10;89.60;;;;;;8346356;28;20448;-78
2021/11/06 17:55:02;;;;;;;12.30;5.60;;;12.10;89.80;;;;;;8360277;28;20719;-79
2021/11/06 17:59:03;;;;;;;10.30;5.90;;;12.00;90.00;;;;;;8327692;28;20453;-78
2021/11/06 18:03:05;;;;;;;9.90;6.20;;;12.00;90.10;;;;;;8344793;28;21019;-79
2021/11/06 18:07:06;;;;;;;5.57;5.00;;;12.00;90.00;;;;;;8368628;28;20473;-78
2021/11/06 18:11:07;;;;;;;15.10;6.70;;;12.00;90.00;;;;;;8367419;28;20885;-78
2021/11/06 18:15:09;;;;;;;7.33;5.37;;;12.00;90.00;;;;;;8357740;28;20448;-78
2021/11/06 18:19:10;;;;;;;4.37;4.03;;;12.00;90.00;;;;;;8344468;28;20450;-78
2021/11/06 18:23:11;;;;;;;4.63;4.17;;;11.90;90.10;;;;;;8330821;28;20786;-77
2021/11/06 18:27:12;;;;;;;4.03;3.63;;;11.90;90.30;;;;;;8361395;28;20225;-78
2021/11/06 18:31:12;;;;;;;5.80;3.77;;;11.90;90.30;;;;;;8336766;28;20226;-78
2021/11/06 18:35:13;;;;;;;3.93;3.27;;;11.80;90.40;;;;;;8351063;28;20447;-77
2021/11/06 18:39:14;;;;;;;3.37;3.07;;;11.70;90.60;;;;;;8348984;28;20194;-78
2021/11/06 18:43:15;;;;;;;3.27;2.80;;;11.70;90.70;;;;;;8347644;28;20854;-77
2021/11/06 18:47:16;;;;;;;4.33;2.50;;;11.60;90.80;;;;;;8367460;28;20206;-76
2021/11/06 18:51:17;;;;;;;3.60;2.73;;;11.60;90.80;;;;;;8361149;28;20674;-76
2021/11/06 18:55:18;;;;;;;3.70;3.37;;;11.60;90.90;;;;;;8361588;28;20441;-78
2021/11/06 18:59:19;;;;;;;3.53;3.00;;;11.70;90.90;;;;;;8344146;28;20432;-77
2021/11/06 19:03:20;;;;;;;6.80;3.27;;;11.70;90.80;;;;;;8358678;28;20488;-77
2021/11/06 19:07:20;;;;;;;3.53;3.23;;;11.70;90.90;;;;;;8346895;28;20473;-76
2021/11/06 19:11:22;;;;;;;4.30;3.00;;;11.70;90.90;;;;;;8362860;28;20213;-77
2021/11/06 19:15:23;;;;;;;4.33;3.30;;;11.70;90.90;;;;;;8349685;28;20776;-77
2021/11/06 19:19:24;;;;;;;4.50;3.27;;;11.70;90.80;;;;;;8358845;28;20525;-77
2021/11/06 19:23:25;;;;;;;3.17;2.83;;;11.70;90.90;;;;;;8346119;28;20192;-76
2021/11/06 19:27:32;;;;;;;4.93;3.57;;;11.70;90.90;;;;;;8340939;28;20543;-79
2021/11/06 19:31:33;;;;;;;4.93;4.50;;;11.70;90.90;;;;;;8367029;28;20195;-77
2021/11/06 19:35:34;;;;;;;4.73;3.73;;;11.60;91.00;;;;;;8346864;28;20858;-76
2021/11/06 19:39:34;;;;;;;5.50;4.17;;;11.70;91.20;;;;;;8353506;28;20309;-77
2021/11/06 19:43:35;;;;;;;4.83;3.00;;;11.70;91.50;;;;;;8360109;28;20489;-76
2021/11/06 19:47:40;;;;;;;9.87;3.73;;;11.70;91.30;;;;;;8376400;28;20361;-76
2021/11/06 19:51:40;;;;;;;6.50;5.07;;;11.70;91.20;;;;;;8363845;28;20655;-76
2021/11/06 19:55:41;;;;;;;4.57;3.60;;;11.60;91.30;;;;;;8377037;28;20440;-76
2021/11/06 19:59:42;;;;;;;3.57;3.27;;;11.50;91.50;;;;;;8348861;28;20247;-76
2021/11/06 20:03:44;;;;;;;9.40;3.43;;;11.50;91.60;;;;;;8358758;28;20832;-76
2021/11/06 20:07:45;;;;;;;5.57;3.57;;;11.50;91.70;;;;;;8367382;28;20560;-76
2021/11/06 20:11:48;;;;;;;3.60;3.30;;;11.50;91.70;;;;;;8362324;28;20445;-78
2021/11/06 20:15:48;;;;;;;4.83;4.13;;;11.40;91.70;;;;;;8364084;28;20445;-77
2021/11/06 20:19:50;;;;;;;8.80;4.57;;;11.30;91.80;;;;;;8348581;28;20460;-77
2021/11/06 20:23:51;;;;;;;3.80;3.40;;;11.30;91.90;;;;;;8344887;28;20483;-77
2021/11/06 20:27:52;;;;;;;5.40;3.80;;;11.40;92.00;;;;;;8362285;28;20463;-78
2021/11/06 20:31:53;;;;;;;4.90;4.17;;;11.40;91.90;;;;;;8366303;28;20191;-77
2021/11/06 20:35:53;;;;;;;5.57;3.73;;;11.40;91.80;;;;;;8353409;28;20442;-77
2021/11/06 20:39:54;;;;;;;5.67;4.10;;;11.40;91.80;;;;;;8351163;28;20434;-77
2021/11/06 20:43:57;;;;;;;6.83;4.87;;;11.50;91.90;;;;;;8363219;28;20967;-77
2021/11/06 20:47:59;;;;;;;4.33;3.93;;;11.50;91.90;;;;;;8365981;28;20207;-77
2021/11/06 20:52:00;;;;;;;4.50;3.43;;;11.60;91.70;;;;;;8355944;28;20446;-78
2021/11/06 20:56:01;;;;;;;4.10;3.80;;;11.50;91.60;;;;;;8370983;28;20560;-76
2021/11/06 21:00:07;;;;;;;7.53;5.40;;;11.60;91.60;;;;;;8360605;28;20467;-76